Time;durP1;ratioP1;P1;durP2;ratioP2;P2;SDS_P1;SDS_P2;PMS_P1;PMS_P2;Temp;Humidity;BMP_temperature;BMP_pressure;BME280_temperature;BME280_humidity;BME280_pressure;Samples;Min_cycle;Max_cycle;Signal;HPM_P1;HPM_P2
2022/05/24 00:00:37;;;;;;;12.85;6.18;;;;;;;;;;5052694;28;20025;-40
2022/05/24 00:03:03;;;;;;;8.43;5.68;;;;;;;;;;5052205;28;20033;-39
2022/05/24 00:05:30;;;;;;;9.55;5.97;;;;;;;;;;5052602;28;20032;-40
2022/05/24 00:07:55;;;;;;;7.15;5.65;;;;;;;;;;5052580;28;20036;-40
2022/05/24 00:10:26;;;;;;;11.18;6.72;;;;;;;;;;5052337;28;20472;-40
2022/05/24 00:12:52;;;;;;;10.70;5.75;;;;;;;;;;5052133;28;20052;-40
2022/05/24 00:15:24;;;;;;;13.55;5.90;;;;;;;;;;5051990;28;20037;-40
2022/05/24 00:17:53;;;;;;;13.23;6.20;;;;;;;;;;5051140;28;20047;-40
2022/05/24 00:20:18;;;;;;;8.32;6.13;;;;;;;;;;5050564;28;20040;-40
2022/05/24 00:22:44;;;;;;;11.45;6.18;;;;;;;;;;5052021;28;20024;-40
2022/05/24 00:25:09;;;;;;;11.48;5.97;;;;;;;;;;5052091;28;20013;-40
2022/05/24 00:27:35;;;;;;;12.57;5.57;;;;;;;;;;5051831;28;20032;-40
2022/05/24 00:30:00;;;;;;;10.55;5.80;;;;;;;;;;5049953;28;20049;-40
2022/05/24 00:32:26;;;;;;;7.72;5.53;;;;;;;;;;5050532;28;20040;-40
2022/05/24 00:34:51;;;;;;;9.90;5.22;;;;;;;;;;5050568;28;20027;-40
2022/05/24 00:37:19;;;;;;;9.40;5.10;;;;;;;;;;5051633;28;20087;-40
2022/05/24 00:39:44;;;;;;;7.85;5.70;;;;;;;;;;5051585;28;20111;-40
2022/05/24 00:42:30;;;;;;;8.75;5.28;;;;;;;;;;5051784;28;20112;-40
2022/05/24 00:45:00;;;;;;;11.98;5.63;;;;;;;;;;5051586;28;20112;-40
2022/05/24 00:47:40;;;;;;;13.60;5.55;;;;;;;;;;5050340;28;20037;-40
2022/05/24 00:50:21;;;;;;;8.25;5.28;;;;;;;;;;5051568;28;20112;-40
2022/05/24 00:52:51;;;;;;;10.27;5.35;;;;;;;;;;5051386;28;20094;-40
2022/05/24 00:55:21;;;;;;;10.02;6.53;;;;;;;;;;5051794;28;20127;-40
2022/05/24 00:57:50;;;;;;;7.95;5.05;;;;;;;;;;5051425;28;20033;-40
2022/05/24 01:00:20;;;;;;;10.65;6.13;;;;;;;;;;5051209;28;20029;-40
2022/05/24 01:02:46;;;;;;;10.15;5.97;;;;;;;;;;5051456;28;20033;-40
2022/05/24 01:05:13;;;;;;;7.57;5.38;;;;;;;;;;5051479;28;20090;-41
2022/05/24 01:07:40;;;;;;;8.18;6.20;;;;;;;;;;5051618;28;20025;-40
2022/05/24 01:10:08;;;;;;;11.40;5.85;;;;;;;;;;5051496;28;20029;-40
2022/05/24 01:12:37;;;;;;;8.35;5.50;;;;;;;;;;5051229;28;20025;-41
2022/05/24 01:15:04;;;;;;;8.50;6.18;;;;;;;;;;5051287;28;20577;-40
2022/05/24 01:17:30;;;;;;;8.43;6.30;;;;;;;;;;5051098;28;20044;-40
2022/05/24 01:19:55;;;;;;;7.80;6.95;;;;;;;;;;5051145;28;20033;-40
2022/05/24 01:22:21;;;;;;;10.52;6.47;;;;;;;;;;5050960;28;20432;-39
2022/05/24 01:24:53;;;;;;;6.32;5.47;;;;;;;;;;5051130;28;20040;-39
2022/05/24 01:27:19;;;;;;;9.23;5.88;;;;;;;;;;5050925;28;20044;-40
2022/05/24 01:29:44;;;;;;;7.55;6.00;;;;;;;;;;5051142;28;20017;-39
2022/05/24 01:37:37;;;;;;;11.88;6.28;;;;;;;;;;5050910;28;20040;-40
2022/05/24 01:40:04;;;;;;;11.82;6.70;;;;;;;;;;5051043;28;20033;-39
2022/05/24 01:42:30;;;;;;;6.38;4.95;;;;;;;;;;5053883;28;20025;-40
2022/05/24 01:45:04;;;;;;;10.18;5.43;;;;;;;;;;5054976;28;20017;-40
2022/05/24 01:47:30;;;;;;;9.43;6.15;;;;;;;;;;5055162;28;20037;-40
2022/05/24 01:49:57;;;;;;;10.30;6.22;;;;;;;;;;5055078;28;20632;-39
2022/05/24 01:52:41;;;;;;;5.32;4.68;;;;;;;;;;5054896;28;20111;-40
2022/05/24 01:55:08;;;;;;;8.50;5.00;;;;;;;;;;5054794;28;20467;-40
2022/05/24 01:57:36;;;;;;;8.27;5.30;;;;;;;;;;5054753;28;20048;-40
2022/05/24 02:00:04;;;;;;;5.93;4.50;;;;;;;;;;5054855;28;20049;-39
2022/05/24 02:02:40;;;;;;;10.63;5.50;;;;;;;;;;5054714;28;20052;-40
2022/05/24 02:05:06;;;;;;;6.28;5.03;;;;;;;;;;5054577;28;20404;-40
2022/05/24 02:07:33;;;;;;;12.43;5.10;;;;;;;;;;5054559;28;20376;-40
2022/05/24 02:09:58;;;;;;;5.53;4.93;;;;;;;;;;5054779;28;20037;-40
2022/05/24 02:12:30;;;;;;;7.68;5.72;;;;;;;;;;5054198;28;20388;-41
2022/05/24 02:14:57;;;;;;;9.38;4.72;;;;;;;;;;5054816;28;20403;-40
2022/05/24 02:17:24;;;;;;;10.13;5.47;;;;;;;;;;5054433;28;20037;-39
2022/05/24 02:19:52;;;;;;;5.00;4.32;;;;;;;;;;5054367;28;20044;-40
2022/05/24 02:22:21;;;;;;;4.18;3.60;;;;;;;;;;5054202;28;20456;-39
2022/05/24 02:24:53;;;;;;;14.45;4.70;;;;;;;;;;5054340;28;20098;-40
2022/05/24 02:27:18;;;;;;;17.77;4.07;;;;;;;;;;5054139;28;20029;-43
2022/05/24 02:29:44;;;;;;;5.70;4.15;;;;;;;;;;5054337;28;20013;-40
2022/05/24 02:32:10;;;;;;;5.57;4.82;;;;;;;;;;5054485;28;20033;-40
2022/05/24 02:34:35;;;;;;;11.45;4.88;;;;;;;;;;5053990;28;20035;-40
2022/05/24 02:37:01;;;;;;;9.93;5.20;;;;;;;;;;5054373;28;20033;-40
2022/05/24 02:39:26;;;;;;;14.55;6.05;;;;;;;;;;5054140;28;20124;-40
2022/05/24 02:41:51;;;;;;;7.30;4.70;;;;;;;;;;5054242;28;20499;-40
2022/05/24 02:44:17;;;;;;;7.00;5.60;;;;;;;;;;5053899;28;20013;-40
2022/05/24 02:46:44;;;;;;;5.38;4.75;;;;;;;;;;5053998;28;20036;-41
2022/05/24 02:49:09;;;;;;;8.05;5.30;;;;;;;;;;5052690;28;20021;-40
2022/05/24 02:51:40;;;;;;;5.63;4.75;;;;;;;;;;5053737;28;20067;-40
2022/05/24 02:54:06;;;;;;;5.47;4.63;;;;;;;;;;5052989;28;20029;-41
2022/05/24 02:56:31;;;;;;;5.97;4.85;;;;;;;;;;5053604;28;20017;-40
2022/05/24 02:58:59;;;;;;;8.20;5.25;;;;;;;;;;5053700;28;20054;-40
2022/05/24 03:01:25;;;;;;;8.55;5.55;;;;;;;;;;5053559;28;20618;-39
2022/05/24 03:03:51;;;;;;;6.10;5.50;;;;;;;;;;5053539;28;20420;-39
2022/05/24 03:06:17;;;;;;;10.23;4.70;;;;;;;;;;5053279;28;20082;-39
2022/05/24 03:11:27;;;;;;;8.32;5.05;;;;;;;;;;5053590;28;20086;-40
2022/05/24 03:16:36;;;;;;;11.05;5.00;;;;;;;;;;5053242;28;20539;-40
2022/05/24 03:19:02;;;;;;;7.07;5.05;;;;;;;;;;5053270;28;20111;-40
2022/05/24 03:21:27;;;;;;;7.60;4.90;;;;;;;;;;5053013;28;20082;-40
2022/05/24 03:23:53;;;;;;;9.35;5.57;;;;;;;;;;5051940;28;20387;-40
2022/05/24 03:26:18;;;;;;;5.97;5.05;;;;;;;;;;5052880;28;20444;-40
2022/05/24 03:28:53;;;;;;;7.05;4.97;;;;;;;;;;5053379;28;20028;-40
2022/05/24 03:31:20;;;;;;;10.35;3.83;;;;;;;;;;5053000;28;20033;-40
2022/05/24 03:33:46;;;;;;;5.53;4.82;;;;;;;;;;5053044;28;20032;-40
2022/05/24 03:36:12;;;;;;;6.82;4.60;;;;;;;;;;5052900;28;20036;-40
2022/05/24 03:38:38;;;;;;;8.15;5.03;;;;;;;;;;5052942;28;20013;-42
2022/05/24 03:41:03;;;;;;;5.35;4.03;;;;;;;;;;5052942;28;20033;-40
2022/05/24 03:43:29;;;;;;;5.85;4.55;;;;;;;;;;5052736;28;20047;-40
2022/05/24 03:45:58;;;;;;;8.13;5.20;;;;;;;;;;5052682;28;20373;-40
2022/05/24 03:48:23;;;;;;;5.80;4.63;;;;;;;;;;5052981;28;20013;-40
2022/05/24 03:50:48;;;;;;;6.07;4.72;;;;;;;;;;5052831;28;20116;-40
2022/05/24 03:53:14;;;;;;;5.20;4.50;;;;;;;;;;5053004;28;20092;-40
2022/05/24 03:55:39;;;;;;;6.03;5.03;;;;;;;;;;5051303;28;20078;-40
2022/05/24 03:58:05;;;;;;;5.72;4.40;;;;;;;;;;5052664;28;20092;-40
2022/05/24 04:00:32;;;;;;;5.65;4.43;;;;;;;;;;5051176;28;20087;-39
2022/05/24 04:02:58;;;;;;;6.63;4.85;;;;;;;;;;5052354;28;20062;-40
2022/05/24 04:05:23;;;;;;;8.13;4.68;;;;;;;;;;5051613;28;20032;-39
2022/05/24 04:07:49;;;;;;;9.60;5.03;;;;;;;;;;5052400;28;20411;-39
2022/05/24 04:10:16;;;;;;;12.05;5.15;;;;;;;;;;5052224;28;20029;-40
2022/05/24 04:12:41;;;;;;;9.15;5.13;;;;;;;;;;5052235;28;20043;-40
2022/05/24 04:15:07;;;;;;;13.63;5.32;;;;;;;;;;5052238;28;20468;-40
2022/05/24 04:17:33;;;;;;;6.35;4.40;;;;;;;;;;5052249;28;20387;-40
2022/05/24 04:19:58;;;;;;;10.60;4.93;;;;;;;;;;5050810;28;20048;-40
2022/05/24 04:22:23;;;;;;;7.75;5.13;;;;;;;;;;5051937;28;20514;-40
2022/05/24 04:24:49;;;;;;;6.25;5.07;;;;;;;;;;5052052;28;20036;-40
2022/05/24 04:27:15;;;;;;;7.88;5.18;;;;;;;;;;5051932;28;20036;-40
2022/05/24 04:29:41;;;;;;;9.07;4.95;;;;;;;;;;5051835;28;20025;-40
2022/05/24 04:32:07;;;;;;;6.40;4.53;;;;;;;;;;5051900;28;20426;-40
2022/05/24 04:34:33;;;;;;;5.53;4.50;;;;;;;;;;5051722;28;20471;-40
2022/05/24 04:36:59;;;;;;;7.15;4.88;;;;;;;;;;5051758;28;20024;-39
2022/05/24 04:39:24;;;;;;;7.45;4.85;;;;;;;;;;5051917;28;20044;-39
2022/05/24 04:44:34;;;;;;;5.80;5.28;;;;;;;;;;5051673;28;20052;-40
2022/05/24 04:47:08;;;;;;;8.38;4.57;;;;;;;;;;5051504;28;20044;-39
2022/05/24 04:49:35;;;;;;;6.90;5.32;;;;;;;;;;5051629;28;20048;-39
2022/05/24 04:52:01;;;;;;;5.60;4.30;;;;;;;;;;5051408;28;20478;-40
2022/05/24 04:54:27;;;;;;;6.18;4.80;;;;;;;;;;5051152;28;20379;-40
2022/05/24 04:56:52;;;;;;;10.35;5.15;;;;;;;;;;5051428;28;20581;-40
2022/05/24 04:59:20;;;;;;;5.45;4.72;;;;;;;;;;5051552;28;20033;-39
2022/05/24 05:01:46;;;;;;;7.65;5.30;;;;;;;;;;5051406;28;20498;-39
2022/05/24 05:04:12;;;;;;;5.45;4.88;;;;;;;;;;5051384;28;20059;-39
2022/05/24 05:06:42;;;;;;;5.78;4.82;;;;;;;;;;5051311;28;20025;-39
2022/05/24 05:09:08;;;;;;;6.57;4.97;;;;;;;;;;5051148;28;20033;-40
2022/05/24 05:11:34;;;;;;;8.35;5.57;;;;;;;;;;5051271;28;20092;-40
2022/05/24 05:14:01;;;;;;;6.97;4.85;;;;;;;;;;5051191;28;20171;-40
2022/05/24 05:16:28;;;;;;;7.70;4.63;;;;;;;;;;5050732;28;20037;-39
2022/05/24 05:18:56;;;;;;;5.35;4.85;;;;;;;;;;5051529;28;20032;-39
2022/05/24 05:21:24;;;;;;;6.15;5.43;;;;;;;;;;5050991;28;20028;-39
2022/05/24 05:23:50;;;;;;;9.75;5.38;;;;;;;;;;5050961;28;20032;-39
2022/05/24 05:26:16;;;;;;;5.45;4.80;;;;;;;;;;5049822;28;20032;-39
2022/05/24 05:28:42;;;;;;;9.25;5.32;;;;;;;;;;5051249;28;20029;-39
2022/05/24 05:31:17;;;;;;;6.85;4.88;;;;;;;;;;5049798;28;20021;-39
2022/05/24 05:33:43;;;;;;;9.48;5.85;;;;;;;;;;5049765;28;20041;-39
2022/05/24 05:36:08;;;;;;;7.63;5.32;;;;;;;;;;5051269;28;20040;-39
2022/05/24 05:38:35;;;;;;;10.43;5.13;;;;;;;;;;5050864;28;20476;-39
2022/05/24 05:41:00;;;;;;;6.68;5.32;;;;;;;;;;5051309;28;20387;-40
2022/05/24 05:43:26;;;;;;;6.30;4.68;;;;;;;;;;5050960;28;20226;-39
2022/05/24 05:45:52;;;;;;;8.35;5.60;;;;;;;;;;5050822;28;20498;-39
2022/05/24 05:48:18;;;;;;;7.63;5.05;;;;;;;;;;5033161;28;20029;-39
2022/05/24 05:50:44;;;;;;;6.82;4.80;;;;;;;;;;5050704;28;20021;-39
2022/05/24 05:53:11;;;;;;;6.03;5.00;;;;;;;;;;5051215;28;20040;-39
2022/05/24 05:55:37;;;;;;;9.05;5.03;;;;;;;;;;5050781;28;20430;-39
2022/05/24 05:58:03;;;;;;;7.38;5.20;;;;;;;;;;5050963;28;20133;-40
2022/05/24 06:00:29;;;;;;;6.07;4.82;;;;;;;;;;5050676;28;20824;-39
2022/05/24 06:02:54;;;;;;;6.60;5.15;;;;;;;;;;5050723;28;20143;-40
2022/05/24 06:05:20;;;;;;;9.75;4.63;;;;;;;;;;5050605;28;20096;-39
2022/05/24 06:07:46;;;;;;;15.90;5.47;;;;;;;;;;5050775;28;20036;-40
2022/05/24 06:10:13;;;;;;;7.93;5.05;;;;;;;;;;5050687;28;20099;-40
2022/05/24 06:12:39;;;;;;;6.20;5.60;;;;;;;;;;5050418;28;20033;-40
2022/05/24 06:15:05;;;;;;;6.18;5.28;;;;;;;;;;5050722;28;20099;-39
2022/05/24 06:17:31;;;;;;;6.50;4.75;;;;;;;;;;5050549;28;20399;-39
2022/05/24 06:20:00;;;;;;;7.07;5.32;;;;;;;;;;5050549;28;20250;-40
2022/05/24 06:22:26;;;;;;;5.88;5.28;;;;;;;;;;5049240;28;20074;-40
2022/05/24 06:24:52;;;;;;;8.38;5.03;;;;;;;;;;5050701;28;20017;-40
2022/05/24 06:27:21;;;;;;;10.35;4.85;;;;;;;;;;5050458;28;20029;-39
2022/05/24 06:29:47;;;;;;;12.55;5.07;;;;;;;;;;5053308;28;20116;-39
2022/05/24 06:32:13;;;;;;;6.38;4.50;;;;;;;;;;5054522;28;20029;-40
2022/05/24 06:34:38;;;;;;;6.10;5.05;;;;;;;;;;5054005;28;20032;-40
2022/05/24 06:37:08;;;;;;;6.57;4.88;;;;;;;;;;5054424;28;20033;-40
2022/05/24 06:39:33;;;;;;;8.77;4.78;;;;;;;;;;5053809;28;20029;-39
2022/05/24 06:41:59;;;;;;;11.07;5.30;;;;;;;;;;5054077;28;20033;-39
2022/05/24 06:44:27;;;;;;;12.65;5.05;;;;;;;;;;5053978;28;20526;-40
2022/05/24 06:46:52;;;;;;;7.82;5.18;;;;;;;;;;5053816;28;20113;-39
2022/05/24 06:49:18;;;;;;;8.20;4.82;;;;;;;;;;5053921;28;20028;-40
2022/05/24 06:51:43;;;;;;;11.60;4.72;;;;;;;;;;5054021;28;20112;-40
2022/05/24 06:54:09;;;;;;;7.43;4.93;;;;;;;;;;5054268;28;20028;-40
2022/05/24 06:56:35;;;;;;;7.88;5.65;;;;;;;;;;5053646;28;20489;-40
2022/05/24 07:04:28;;;;;;;8.57;4.85;;;;;;;;;;5053611;28;20032;-40
2022/05/24 07:06:54;;;;;;;8.40;5.25;;;;;;;;;;5053568;28;20036;-40
2022/05/24 07:09:19;;;;;;;7.32;5.25;;;;;;;;;;5053368;28;20033;-40
2022/05/24 07:11:47;;;;;;;6.15;5.55;;;;;;;;;;5053485;28;20116;-40
2022/05/24 07:14:12;;;;;;;8.02;5.57;;;;;;;;;;5053069;28;20125;-42
2022/05/24 07:16:38;;;;;;;8.88;5.40;;;;;;;;;;5053429;28;20098;-40
2022/05/24 07:19:04;;;;;;;9.43;6.32;;;;;;;;;;5053258;28;20029;-40
2022/05/24 07:21:30;;;;;;;10.48;6.70;;;;;;;;;;5053105;28;20017;-40
2022/05/24 07:23:56;;;;;;;15.30;7.53;;;;;;;;;;5053225;28;20025;-40
2022/05/24 07:26:22;;;;;;;12.90;8.23;;;;;;;;;;5052936;28;20439;-40
2022/05/24 07:28:48;;;;;;;13.20;7.25;;;;;;;;;;5053148;28;20074;-39
2022/05/24 07:31:13;;;;;;;12.07;7.80;;;;;;;;;;5053064;28;20027;-40
2022/05/24 07:33:39;;;;;;;12.77;7.70;;;;;;;;;;5052859;28;20024;-39
2022/05/24 07:36:05;;;;;;;11.02;7.53;;;;;;;;;;5053271;28;20021;-40
2022/05/24 07:38:31;;;;;;;10.00;6.97;;;;;;;;;;5052996;28;20036;-40
2022/05/24 07:46:26;;;;;;;10.05;6.80;;;;;;;;;;5052718;28;20025;-40
2022/05/24 07:48:52;;;;;;;14.82;8.00;;;;;;;;;;5052687;28;20112;-40
2022/05/24 07:51:17;;;;;;;10.98;7.25;;;;;;;;;;5052690;28;20119;-40
2022/05/24 07:53:43;;;;;;;8.55;7.30;;;;;;;;;;5052500;28;20025;-40
2022/05/24 07:56:09;;;;;;;8.73;5.95;;;;;;;;;;5052790;28;20032;-40
2022/05/24 07:58:35;;;;;;;12.90;7.10;;;;;;;;;;5052354;28;20032;-40
2022/05/24 08:01:01;;;;;;;11.05;6.43;;;;;;;;;;5052428;28;20399;-39
2022/05/24 08:03:27;;;;;;;17.35;6.65;;;;;;;;;;5052458;28;20021;-40
2022/05/24 08:05:52;;;;;;;12.90;7.88;;;;;;;;;;5052374;28;20036;-40
2022/05/24 08:08:19;;;;;;;8.38;6.45;;;;;;;;;;5052314;28;20021;-40
2022/05/24 08:10:47;;;;;;;8.80;7.13;;;;;;;;;;5052623;28;20025;-41
2022/05/24 08:13:16;;;;;;;8.00;5.90;;;;;;;;;;5052013;28;20037;-39
2022/05/24 08:15:42;;;;;;;10.73;5.72;;;;;;;;;;5052159;28;20029;-40
2022/05/24 08:18:08;;;;;;;15.30;5.35;;;;;;;;;;5052230;28;20032;-39
2022/05/24 08:20:34;;;;;;;9.30;5.93;;;;;;;;;;5052160;28;20376;-40
2022/05/24 08:23:00;;;;;;;8.18;5.63;;;;;;;;;;5052434;28;20021;-40
2022/05/24 08:25:27;;;;;;;13.65;4.82;;;;;;;;;;5052426;28;20367;-40
2022/05/24 08:27:53;;;;;;;9.90;4.43;;;;;;;;;;5052026;28;20096;-40
2022/05/24 08:30:18;;;;;;;5.82;4.72;;;;;;;;;;5052008;28;20455;-40
2022/05/24 08:32:46;;;;;;;6.22;4.68;;;;;;;;;;5051887;28;20025;-39
2022/05/24 08:35:13;;;;;;;12.98;4.50;;;;;;;;;;5051806;28;20032;-41
2022/05/24 08:37:40;;;;;;;8.88;4.68;;;;;;;;;;5051684;28;20013;-41
2022/05/24 08:40:06;;;;;;;10.43;4.78;;;;;;;;;;5050522;28;20068;-40
2022/05/24 08:42:34;;;;;;;6.80;4.10;;;;;;;;;;5051889;28;20071;-40
2022/05/24 08:50:34;;;;;;;8.10;4.55;;;;;;;;;;5051419;28;20032;-40
2022/05/24 08:53:04;;;;;;;11.82;4.55;;;;;;;;;;5051133;28;20025;-40
2022/05/24 08:55:30;;;;;;;13.60;4.93;;;;;;;;;;5051439;28;20029;-41
2022/05/24 08:58:00;;;;;;;5.68;4.22;;;;;;;;;;5051467;28;20017;-40
2022/05/24 09:00:36;;;;;;;9.68;4.22;;;;;;;;;;5051240;28;20561;-40
2022/05/24 09:03:04;;;;;;;9.85;4.28;;;;;;;;;;5051313;28;20021;-40
2022/05/24 09:05:36;;;;;;;6.57;3.65;;;;;;;;;;5051622;28;20090;-39
2022/05/24 09:08:01;;;;;;;6.28;3.83;;;;;;;;;;5051296;28;20491;-39
2022/05/24 09:10:33;;;;;;;7.20;4.55;;;;;;;;;;5051201;28;20032;-39
2022/05/24 09:13:31;;;;;;;4.40;3.90;;;;;;;;;;5051156;28;20549;-40
2022/05/24 09:15:57;;;;;;;4.90;3.97;;;;;;;;;;5049935;28;20045;-43
2022/05/24 09:18:31;;;;;;;9.27;3.92;;;;;;;;;;5051031;28;20602;-40
2022/05/24 09:20:57;;;;;;;6.68;4.35;;;;;;;;;;5051111;28;20036;-42
2022/05/24 09:23:41;;;;;;;8.43;3.47;;;;;;;;;;5049767;28;20031;-40
2022/05/24 09:26:08;;;;;;;5.53;3.33;;;;;;;;;;5051444;28;20028;-40
2022/05/24 09:28:55;;;;;;;4.10;3.40;;;;;;;;;;5051004;28;20407;-40
2022/05/24 09:31:26;;;;;;;4.38;3.58;;;;;;;;;;5050901;28;20045;-39
2022/05/24 09:34:04;;;;;;;8.10;3.63;;;;;;;;;;5051189;28;20071;-40
2022/05/24 09:36:53;;;;;;;6.18;4.03;;;;;;;;;;5050861;28;20021;-40
2022/05/24 09:39:30;;;;;;;8.88;3.47;;;;;;;;;;5049821;28;20052;-41
2022/05/24 09:42:00;;;;;;;5.05;3.30;;;;;;;;;;5051291;28;20025;-41
2022/05/24 09:44:27;;;;;;;9.38;3.75;;;;;;;;;;5051037;28;20043;-40
2022/05/24 09:46:52;;;;;;;8.60;4.22;;;;;;;;;;5051115;28;20033;-40
2022/05/24 09:49:21;;;;;;;9.63;3.50;;;;;;;;;;5051018;28;20104;-40
2022/05/24 09:51:46;;;;;;;7.78;3.60;;;;;;;;;;5050843;28;20107;-40
2022/05/24 09:54:14;;;;;;;8.10;3.30;;;;;;;;;;5050004;28;20052;-42
2022/05/24 09:56:39;;;;;;;4.20;3.22;;;;;;;;;;5051145;28;20033;-40
2022/05/24 09:59:06;;;;;;;10.13;3.85;;;;;;;;;;5050974;28;20494;-40
2022/05/24 10:01:40;;;;;;;4.90;3.70;;;;;;;;;;5051005;28;20021;-40
2022/05/24 10:04:16;;;;;;;4.93;3.67;;;;;;;;;;5052746;28;20115;-40
2022/05/24 10:06:49;;;;;;;4.97;3.88;;;;;;;;;;5054842;28;20395;-40
2022/05/24 10:09:14;;;;;;;;;;;;;;;;;;5055024;28;20460;-40
2022/05/24 10:11:43;;;;;;;13.57;3.88;;;;;;;;;;5054633;28;19905;-39
2022/05/24 10:14:12;;;;;;;6.25;3.53;;;;;;;;;;5054240;28;20081;-40
2022/05/24 10:16:44;;;;;;;5.75;4.05;;;;;;;;;;5054611;28;20056;-40
2022/05/24 10:19:18;;;;;;;9.60;3.67;;;;;;;;;;5054440;28;20072;-40
2022/05/24 10:21:59;;;;;;;6.78;3.42;;;;;;;;;;5054337;28;20531;-40
2022/05/24 10:24:43;;;;;;;5.93;3.55;;;;;;;;;;5054517;28;20022;-40
2022/05/24 10:27:13;;;;;;;6.07;3.15;;;;;;;;;;5054326;28;20056;-40
2022/05/24 10:29:58;;;;;;;5.13;3.25;;;;;;;;;;5053166;28;20025;-40
2022/05/24 10:38:18;;;;;;;5.68;2.92;;;;;;;;;;5054216;28;20025;-40
2022/05/24 10:40:53;;;;;;;8.13;3.58;;;;;;;;;;5054044;28;20044;-40
2022/05/24 10:43:38;;;;;;;5.13;2.92;;;;;;;;;;5053986;28;20067;-40
2022/05/24 10:46:08;;;;;;;9.18;3.47;;;;;;;;;;5053944;28;20029;-39
2022/05/24 10:48:35;;;;;;;5.03;3.50;;;;;;;;;;5053818;28;20055;-40
2022/05/24 10:51:10;;;;;;;3.92;2.80;;;;;;;;;;5052773;28;20056;-40
2022/05/24 10:53:51;;;;;;;5.70;3.28;;;;;;;;;;5053742;28;20528;-40
2022/05/24 10:56:40;;;;;;;7.82;4.18;;;;;;;;;;5053630;28;20029;-40
2022/05/24 10:59:11;;;;;;;6.22;3.28;;;;;;;;;;5053526;28;20487;-40
2022/05/24 11:01:40;;;;;;;9.00;3.40;;;;;;;;;;5053629;28;20037;-40
2022/05/24 11:04:10;;;;;;;5.63;3.20;;;;;;;;;;5053469;28;20027;-40
2022/05/24 11:06:40;;;;;;;4.80;3.42;;;;;;;;;;5053790;28;20439;-40
2022/05/24 11:09:09;;;;;;;4.70;2.53;;;;;;;;;;5053493;28;20025;-40
2022/05/24 11:11:50;;;;;;;6.13;2.63;;;;;;;;;;5053364;28;20029;-40
2022/05/24 11:14:30;;;;;;;5.82;3.22;;;;;;;;;;5052714;28;20127;-40
2022/05/24 11:16:56;;;;;;;7.65;2.45;;;;;;;;;;5053578;28;20043;-40
2022/05/24 11:19:24;;;;;;;4.65;2.92;;;;;;;;;;5053137;28;20039;-39
2022/05/24 11:21:50;;;;;;;2.83;2.53;;;;;;;;;;5052094;28;20462;-40
2022/05/24 11:24:30;;;;;;;4.28;2.65;;;;;;;;;;5052022;28;20021;-40
2022/05/24 11:26:58;;;;;;;6.68;3.10;;;;;;;;;;5053182;28;20468;-40
2022/05/24 11:29:28;;;;;;;3.22;2.90;;;;;;;;;;5053140;28;20013;-40
2022/05/24 11:32:01;;;;;;;5.05;2.88;;;;;;;;;;5053098;28;20082;-40
2022/05/24 11:34:27;;;;;;;3.28;2.65;;;;;;;;;;5051665;28;20559;-40
2022/05/24 11:37:11;;;;;;;4.53;3.00;;;;;;;;;;5053015;28;20025;-40
2022/05/24 11:39:38;;;;;;;2.90;2.53;;;;;;;;;;5052719;28;20039;-40
2022/05/24 11:42:28;;;;;;;6.65;3.17;;;;;;;;;;5052930;28;20494;-40
2022/05/24 11:44:55;;;;;;;5.88;3.70;;;;;;;;;;5052301;28;20045;-39
2022/05/24 11:47:37;;;;;;;7.38;3.25;;;;;;;;;;5051848;28;20023;-40
2022/05/24 11:50:26;;;;;;;6.85;2.50;;;;;;;;;;5052831;28;20043;-40
2022/05/24 11:53:03;;;;;;;6.32;3.00;;;;;;;;;;5052031;28;20497;-40
2022/05/24 11:55:41;;;;;;;3.65;2.75;;;;;;;;;;5052420;28;20482;-40
2022/05/24 11:58:27;;;;;;;4.57;2.50;;;;;;;;;;5052600;28;20064;-40
2022/05/24 12:01:16;;;;;;;6.22;1.95;;;;;;;;;;5047536;28;20076;-40
2022/05/24 12:09:55;;;;;;;4.30;2.35;;;;;;;;;;5051111;28;20101;-41
2022/05/24 12:12:28;;;;;;;6.05;2.45;;;;;;;;;;5052308;28;20387;-40
2022/05/24 12:15:06;;;;;;;9.90;3.25;;;;;;;;;;5052298;28;20041;-40
2022/05/24 12:17:32;;;;;;;3.67;2.78;;;;;;;;;;5050874;28;20460;-40
2022/05/24 12:19:58;;;;;;;6.00;2.55;;;;;;;;;;5052118;28;20056;-40
2022/05/24 12:22:27;;;;;;;3.88;2.60;;;;;;;;;;5051878;28;20510;-40
2022/05/24 12:24:55;;;;;;;4.55;2.17;;;;;;;;;;5052090;28;20438;-40
2022/05/24 12:27:39;;;;;;;10.55;3.17;;;;;;;;;;5051150;28;20082;-40
2022/05/24 12:30:23;;;;;;;6.53;2.75;;;;;;;;;;5050636;28;20029;-40
2022/05/24 12:32:49;;;;;;;9.35;2.92;;;;;;;;;;5052121;28;20051;-40
2022/05/24 12:35:16;;;;;;;4.13;2.60;;;;;;;;;;5050684;28;20460;-40
2022/05/24 12:37:46;;;;;;;6.38;2.03;;;;;;;;;;5051667;28;20029;-40
2022/05/24 12:40:11;;;;;;;6.03;2.22;;;;;;;;;;5052080;28;20131;-41
2022/05/24 12:43:03;;;;;;;6.55;2.15;;;;;;;;;;5051640;28;20124;-40
2022/05/24 12:45:38;;;;;;;3.63;2.35;;;;;;;;;;5051326;28;20052;-40
2022/05/24 12:48:05;;;;;;;9.05;2.72;;;;;;;;;;5052053;28;20033;-40
2022/05/24 12:50:36;;;;;;;4.18;2.55;;;;;;;;;;5051547;28;20025;-40
2022/05/24 12:53:09;;;;;;;3.55;2.75;;;;;;;;;;5050277;28;20039;-40
2022/05/24 12:55:55;;;;;;;8.32;2.25;;;;;;;;;;5051515;28;20108;-40
2022/05/24 12:58:26;;;;;;;7.25;2.50;;;;;;;;;;5051764;28;20033;-40
2022/05/24 13:00:52;;;;;;;6.72;2.17;;;;;;;;;;5051453;28;20048;-41
2022/05/24 13:03:22;;;;;;;4.75;2.25;;;;;;;;;;5051479;28;20052;-39
2022/05/24 13:05:58;;;;;;;3.25;2.00;;;;;;;;;;5050023;28;20037;-40
2022/05/24 13:08:25;;;;;;;2.78;1.98;;;;;;;;;;5051410;28;20394;-40
2022/05/24 13:10:51;;;;;;;5.28;2.60;;;;;;;;;;5051702;28;20040;-41
2022/05/24 13:13:16;;;;;;;5.47;2.25;;;;;;;;;;5051108;28;20118;-40
2022/05/24 13:15:46;;;;;;;8.48;3.03;;;;;;;;;;5051299;28;20503;-40
2022/05/24 13:18:19;;;;;;;3.63;2.10;;;;;;;;;;5051151;28;20033;-40
2022/05/24 13:20:55;;;;;;;6.50;2.83;;;;;;;;;;5051144;28;20045;-40
2022/05/24 13:23:21;;;;;;;7.50;2.67;;;;;;;;;;5051162;28;20035;-40
2022/05/24 13:26:16;;;;;;;4.93;2.35;;;;;;;;;;5051067;28;20017;-40
2022/05/24 13:28:44;;;;;;;4.57;2.42;;;;;;;;;;5050372;28;20059;-40
2022/05/24 13:34:00;;;;;;;5.97;2.28;;;;;;;;;;5049892;28;20047;-40
2022/05/24 13:36:30;;;;;;;11.95;2.65;;;;;;;;;;5050991;28;20096;-40
2022/05/24 13:39:01;;;;;;;1.90;1.33;;;;;;;;;;5054758;28;20383;-40
2022/05/24 13:41:30;;;;;;;5.70;2.08;;;;;;;;;;5055147;28;20037;-40
2022/05/24 13:44:06;;;;;;;4.38;2.53;;;;;;;;;;5055432;28;20024;-40
2022/05/24 13:46:46;;;;;;;4.35;1.88;;;;;;;;;;5055288;28;20087;-40
2022/05/24 13:49:24;;;;;;;4.72;1.90;;;;;;;;;;5055076;28;20525;-40
2022/05/24 13:51:49;;;;;;;4.68;2.78;;;;;;;;;;5054869;28;20588;-40
2022/05/24 13:54:31;;;;;;;6.82;2.08;;;;;;;;;;5054983;28;20013;-40
2022/05/24 13:56:57;;;;;;;4.32;2.78;;;;;;;;;;5055164;28;20033;-40
2022/05/24 13:59:23;;;;;;;8.60;2.15;;;;;;;;;;5054885;28;20554;-40
2022/05/24 14:02:08;;;;;;;4.72;2.05;;;;;;;;;;5054663;28;20502;-40
2022/05/24 14:04:38;;;;;;;7.25;2.35;;;;;;;;;;5054758;28;20111;-40
2022/05/24 14:07:06;;;;;;;4.38;2.15;;;;;;;;;;5054922;28;20115;-40
2022/05/24 14:09:33;;;;;;;3.50;1.88;;;;;;;;;;5054584;28;20021;-40
2022/05/24 14:12:01;;;;;;;3.42;1.98;;;;;;;;;;5054699;28;20028;-39
2022/05/24 14:14:28;;;;;;;4.30;1.92;;;;;;;;;;5054445;28;20052;-40
2022/05/24 14:16:54;;;;;;;8.52;2.10;;;;;;;;;;5054533;28;20039;-40
2022/05/24 14:19:21;;;;;;;2.58;1.95;;;;;;;;;;5053120;28;20040;-40
2022/05/24 14:21:48;;;;;;;3.97;2.10;;;;;;;;;;5054381;28;20025;-40
2022/05/24 14:24:15;;;;;;;2.78;1.75;;;;;;;;;;5054611;28;20037;-40
2022/05/24 14:26:41;;;;;;;2.85;2.08;;;;;;;;;;5054216;28;20044;-40
2022/05/24 14:29:07;;;;;;;2.05;1.60;;;;;;;;;;5054323;28;20040;-40
2022/05/24 14:31:33;;;;;;;1.85;1.67;;;;;;;;;;5054012;28;20017;-40
2022/05/24 14:33:59;;;;;;;5.35;2.13;;;;;;;;;;5054314;28;20060;-40
2022/05/24 14:36:24;;;;;;;3.17;1.63;;;;;;;;;;5054425;28;20060;-40
2022/05/24 14:38:49;;;;;;;4.80;1.83;;;;;;;;;;5053968;28;20442;-40
2022/05/24 14:41:20;;;;;;;5.03;1.80;;;;;;;;;;5052840;28;20029;-40
2022/05/24 14:43:47;;;;;;;2.58;1.77;;;;;;;;;;5052964;28;20028;-40
2022/05/24 14:46:13;;;;;;;8.05;2.47;;;;;;;;;;5053913;28;20537;-40
2022/05/24 14:48:39;;;;;;;7.68;2.05;;;;;;;;;;5053569;28;20037;-40
2022/05/24 14:51:05;;;;;;;4.60;1.67;;;;;;;;;;5053728;28;20032;-41
2022/05/24 14:53:32;;;;;;;2.55;2.00;;;;;;;;;;5054084;28;20082;-40
2022/05/24 14:55:58;;;;;;;4.13;2.42;;;;;;;;;;5053672;28;20368;-40
2022/05/24 14:58:24;;;;;;;5.70;1.85;;;;;;;;;;5053721;28;20036;-40
2022/05/24 15:00:50;;;;;;;3.67;1.80;;;;;;;;;;5052230;28;20116;-40
2022/05/24 15:03:15;;;;;;;2.58;1.10;;;;;;;;;;5053571;28;20048;-40
2022/05/24 15:05:41;;;;;;;3.60;2.35;;;;;;;;;;5053536;28;20029;-40
2022/05/24 15:16:23;;;;;;;4.38;2.25;;;;;;;;;;5053398;28;20053;-40
2022/05/24 15:18:49;;;;;;;6.90;2.83;;;;;;;;;;5053293;28;20494;-40
2022/05/24 15:21:17;;;;;;;5.40;2.03;;;;;;;;;;5053279;28;20035;-40
2022/05/24 15:23:46;;;;;;;2.75;1.52;;;;;;;;;;5053285;28;20094;-40
2022/05/24 15:26:18;;;;;;;4.55;2.20;;;;;;;;;;5053262;28;20029;-40
2022/05/24 15:28:44;;;;;;;7.78;2.17;;;;;;;;;;5053137;28;20033;-40
2022/05/24 15:31:11;;;;;;;3.35;1.83;;;;;;;;;;5053378;28;20052;-41
2022/05/24 15:33:37;;;;;;;3.05;1.80;;;;;;;;;;5051743;28;20075;-40
2022/05/24 15:36:03;;;;;;;7.50;2.25;;;;;;;;;;5053106;28;20048;-40
2022/05/24 15:38:29;;;;;;;4.10;2.38;;;;;;;;;;5052872;28;20028;-41
2022/05/24 15:40:56;;;;;;;8.80;2.45;;;;;;;;;;5053144;28;20131;-41
2022/05/24 15:43:22;;;;;;;3.20;1.77;;;;;;;;;;5053013;28;20025;-40